createdAt,value
2019-03-15T00:01:45.021Z,7.17
2019-03-15T00:03:51.717Z,7.10
2019-03-15T00:05:59.315Z,8.03
2019-03-15T00:08:06.468Z,7.20
2019-03-15T00:10:14.271Z,7.60
2019-03-15T00:12:21.568Z,7.15
2019-03-15T00:14:28.341Z,7.47
2019-03-15T00:16:35.000Z,7.70
2019-03-15T00:18:41.746Z,8.00
2019-03-15T00:20:48.467Z,7.20
2019-03-15T00:22:55.120Z,7.75
2019-03-15T00:25:01.985Z,7.10
2019-03-15T00:27:08.809Z,6.90
2019-03-15T00:29:15.473Z,7.12
2019-03-15T00:31:22.152Z,7.85
2019-03-15T00:33:28.812Z,6.67
2019-03-15T00:35:35.921Z,6.62
2019-03-15T00:37:42.874Z,7.75
2019-03-15T00:39:50.626Z,7.92
2019-03-15T00:41:57.336Z,8.20
2019-03-15T00:44:04.026Z,7.53
2019-03-15T00:46:10.742Z,7.22
2019-03-15T00:48:17.401Z,7.85
2019-03-15T00:50:24.088Z,7.58
2019-03-15T00:52:30.768Z,7.50
2019-03-15T00:54:37.418Z,8.20
2019-03-15T00:56:44.097Z,7.75
2019-03-15T00:58:50.760Z,8.58
2019-03-15T01:00:57.413Z,9.78
2019-03-15T01:03:04.102Z,7.45
2019-03-15T01:05:10.830Z,8.25
2019-03-15T01:07:17.500Z,9.08
2019-03-15T01:09:24.178Z,9.30
2019-03-15T01:11:30.837Z,8.60
2019-03-15T01:13:37.505Z,8.30
2019-03-15T01:15:44.187Z,8.05
2019-03-15T01:17:50.838Z,9.35
2019-03-15T01:19:57.499Z,9.13
2019-03-15T01:22:05.284Z,9.28
2019-03-15T01:24:11.938Z,9.10
2019-03-15T01:26:18.681Z,9.50
2019-03-15T01:28:25.367Z,9.25
2019-03-15T01:30:32.009Z,8.68
2019-03-15T01:32:38.730Z,9.00
2019-03-15T01:34:45.423Z,8.93
2019-03-15T01:36:52.148Z,9.08
2019-03-15T01:38:58.813Z,9.43
2019-03-15T01:41:05.565Z,9.45
2019-03-15T01:43:13.283Z,9.33
2019-03-15T01:45:20.104Z,8.43
2019-03-15T01:47:26.859Z,8.25
2019-03-15T01:49:33.643Z,9.45
2019-03-15T01:51:41.438Z,9.43
2019-03-15T01:53:48.503Z,8.78
2019-03-15T01:55:56.368Z,8.90
2019-03-15T01:58:03.062Z,9.10
2019-03-15T02:00:11.625Z,8.25
2019-03-15T02:02:18.324Z,9.18
2019-03-15T02:04:24.990Z,10.13
2019-03-15T02:06:31.692Z,8.43
2019-03-15T02:08:38.440Z,8.30
2019-03-15T02:10:46.270Z,8.98
2019-03-15T02:12:52.951Z,8.53
2019-03-15T02:14:59.675Z,9.53
2019-03-15T02:17:06.338Z,9.43
2019-03-15T02:19:13.022Z,8.78
2019-03-15T02:21:19.683Z,8.43
2019-03-15T02:23:26.346Z,7.90
2019-03-15T02:25:33.045Z,8.70
2019-03-15T02:27:39.689Z,8.15
2019-03-15T02:29:46.346Z,7.72
2019-03-15T02:31:53.030Z,8.15
2019-03-15T02:34:00.716Z,8.53
2019-03-15T02:36:07.458Z,8.38
2019-03-15T02:38:14.210Z,7.92
2019-03-15T02:40:20.967Z,8.28
2019-03-15T02:42:27.688Z,6.87
2019-03-15T02:44:34.451Z,8.03
2019-03-15T02:46:41.154Z,8.40
2019-03-15T02:48:47.795Z,7.30
2019-03-15T02:50:56.161Z,8.68
2019-03-15T02:53:02.850Z,7.60
2019-03-15T02:55:09.881Z,8.55
2019-03-15T02:57:16.564Z,9.08
2019-03-15T02:59:23.226Z,9.45
2019-03-15T03:01:29.879Z,9.00
2019-03-15T03:03:37.582Z,7.60
2019-03-15T03:05:44.221Z,9.68
2019-03-15T03:07:51.144Z,9.35
2019-03-15T03:09:57.874Z,8.73
2019-03-15T03:12:04.595Z,9.38
2019-03-15T03:14:11.335Z,9.03
2019-03-15T03:16:18.761Z,10.32
2019-03-15T03:18:25.772Z,10.63
2019-03-15T03:20:32.439Z,8.85
2019-03-15T03:22:39.203Z,10.18
2019-03-15T03:24:47.154Z,9.95
2019-03-15T03:26:54.021Z,9.55
2019-03-15T03:29:00.775Z,10.20
2019-03-15T03:31:07.447Z,10.48
2019-03-15T03:33:14.388Z,11.03
2019-03-15T03:35:21.341Z,11.18
2019-03-15T03:37:28.077Z,12.07
2019-03-15T03:39:34.778Z,10.78
2019-03-15T03:41:41.584Z,11.35
2019-03-15T03:43:49.349Z,12.25
2019-03-15T03:45:56.079Z,11.78
2019-03-15T03:48:02.788Z,10.90
2019-03-15T03:50:11.719Z,10.93
2019-03-15T03:52:18.457Z,11.22
2019-03-15T03:54:25.222Z,9.85
2019-03-15T03:56:32.165Z,11.03
2019-03-15T03:58:38.830Z,10.80
2019-03-15T04:00:45.554Z,10.50
2019-03-15T04:02:53.380Z,10.82
2019-03-15T04:05:00.531Z,10.95
2019-03-15T04:07:07.228Z,10.78
2019-03-15T04:09:13.964Z,10.70
2019-03-15T04:11:20.627Z,11.35
2019-03-15T04:13:27.340Z,11.45
2019-03-15T04:15:34.059Z,11.03
2019-03-15T04:17:40.803Z,10.98
2019-03-15T04:19:47.491Z,10.70
2019-03-15T04:21:54.226Z,10.18
2019-03-15T04:24:00.958Z,10.45
2019-03-15T04:26:07.672Z,11.15
2019-03-15T04:28:14.253Z,9.70
2019-03-15T04:30:20.988Z,10.38
2019-03-15T04:32:27.753Z,10.48
2019-03-15T04:34:34.425Z,9.18
2019-03-15T04:36:41.095Z,8.33
2019-03-15T04:38:47.865Z,9.00
2019-03-15T04:40:54.593Z,8.65
2019-03-15T04:43:01.249Z,9.10
2019-03-15T04:45:09.507Z,9.38
2019-03-15T04:47:16.163Z,8.43
2019-03-15T04:49:22.829Z,8.93
2019-03-15T04:51:29.536Z,8.70
2019-03-15T04:53:36.205Z,8.75
2019-03-15T04:55:42.865Z,8.93
2019-03-15T04:57:49.830Z,7.90
2019-03-15T04:59:56.490Z,8.63
2019-03-15T05:02:03.228Z,7.75
2019-03-15T05:04:09.897Z,7.97
2019-03-15T05:06:16.562Z,7.83
2019-03-15T05:08:23.300Z,8.53
2019-03-15T05:10:29.982Z,8.70
2019-03-15T05:12:36.701Z,8.08
2019-03-15T05:14:44.330Z,8.55
2019-03-15T05:16:51.470Z,8.43
2019-03-15T05:18:58.193Z,7.47
2019-03-15T05:21:04.957Z,8.05
2019-03-15T05:23:11.676Z,7.37
2019-03-15T05:25:18.338Z,7.60
2019-03-15T05:27:24.990Z,7.97
2019-03-15T05:29:31.821Z,7.08
2019-03-15T05:31:38.486Z,7.70
2019-03-15T05:33:45.163Z,7.08
2019-03-15T05:35:51.842Z,9.15
2019-03-15T05:37:58.569Z,7.33
2019-03-15T05:40:08.321Z,6.17
2019-03-15T05:42:15.085Z,6.95
2019-03-15T05:44:21.741Z,6.53
2019-03-15T05:46:29.472Z,5.85
2019-03-15T05:48:37.233Z,6.55
2019-03-15T05:50:43.900Z,6.30
2019-03-15T05:52:50.562Z,6.20
2019-03-15T05:54:57.188Z,5.62
2019-03-15T05:57:04.400Z,5.80
2019-03-15T05:59:11.128Z,5.60
2019-03-15T06:01:17.828Z,4.85
2019-03-15T06:03:24.492Z,5.72
2019-03-15T06:05:31.147Z,5.78
2019-03-15T06:07:37.837Z,6.42
2019-03-15T06:09:44.564Z,5.37
2019-03-15T06:11:51.217Z,5.15
2019-03-15T06:13:57.901Z,5.15
2019-03-15T06:16:04.631Z,5.67
2019-03-15T06:18:11.388Z,5.22
2019-03-15T06:20:19.084Z,5.08
2019-03-15T06:22:25.820Z,4.80
2019-03-15T06:24:32.556Z,5.40
2019-03-15T06:26:39.235Z,6.03
2019-03-15T06:28:45.880Z,5.00
2019-03-15T06:30:52.533Z,5.28
2019-03-15T06:32:59.209Z,4.58
2019-03-15T06:35:06.639Z,6.67
2019-03-15T06:37:13.317Z,10.80
2019-03-15T06:39:20.063Z,6.30
2019-03-15T06:41:26.729Z,6.28
2019-03-15T06:43:33.384Z,5.67
2019-03-15T06:45:41.805Z,4.90
2019-03-15T06:47:48.669Z,4.92
2019-03-15T06:49:55.334Z,6.30
2019-03-15T06:52:02.116Z,5.60
2019-03-15T06:54:11.758Z,7.37
2019-03-15T06:56:17.129Z,5.45
2019-03-15T06:58:23.732Z,4.62
2019-03-15T07:00:30.377Z,4.25
2019-03-15T07:02:37.036Z,4.72
2019-03-15T07:04:43.799Z,3.95
2019-03-15T07:06:50.458Z,3.25
2019-03-15T07:08:57.119Z,3.40
2019-03-15T07:11:05.250Z,3.72
2019-03-15T07:13:11.963Z,3.58
2019-03-15T07:15:18.623Z,3.50
2019-03-15T07:17:25.311Z,3.70
2019-03-15T07:19:32.047Z,3.75
2019-03-15T07:21:38.706Z,3.90
2019-03-15T07:23:45.391Z,5.95
2019-03-15T07:25:52.091Z,8.70
2019-03-15T07:27:58.782Z,7.25
2019-03-15T07:30:09.207Z,7.87
2019-03-15T07:32:15.940Z,7.20
2019-03-15T07:34:22.608Z,5.92
2019-03-15T07:36:29.332Z,5.47
2019-03-15T07:38:35.978Z,4.55
2019-03-15T07:40:42.578Z,6.00
2019-03-15T07:42:49.257Z,6.67
2019-03-15T07:44:55.920Z,5.53
2019-03-15T07:47:02.651Z,4.72
2019-03-15T07:49:09.349Z,4.60
2019-03-15T07:51:16.072Z,3.80
2019-03-15T07:53:22.726Z,4.12
2019-03-15T07:55:29.402Z,4.70
2019-03-15T07:57:36.129Z,3.85
2019-03-15T07:59:42.866Z,3.45
2019-03-15T08:01:52.591Z,3.67
2019-03-15T08:03:57.903Z,3.70
2019-03-15T08:06:04.723Z,3.70
2019-03-15T08:08:11.481Z,3.52
2019-03-15T08:10:18.141Z,3.87
2019-03-15T08:12:24.788Z,3.52
2019-03-15T08:14:31.540Z,3.62
2019-03-15T08:16:38.199Z,3.05
2019-03-15T08:18:44.852Z,3.22
2019-03-15T08:20:52.549Z,4.05
2019-03-15T08:22:59.208Z,3.85
2019-03-15T08:25:07.752Z,3.80
2019-03-15T08:27:16.111Z,3.50
2019-03-15T08:29:22.753Z,3.30
2019-03-15T08:31:29.401Z,3.08
2019-03-15T08:33:36.090Z,3.67
2019-03-15T08:35:42.748Z,4.30
2019-03-15T08:37:49.661Z,3.62
2019-03-15T08:39:56.531Z,4.70
2019-03-15T08:42:03.184Z,4.05
2019-03-15T08:44:09.840Z,4.08
2019-03-15T08:46:16.514Z,3.35
2019-03-15T08:48:23.409Z,4.20
2019-03-15T08:50:30.189Z,3.95
2019-03-15T08:52:36.870Z,4.22
2019-03-15T08:54:46.494Z,3.58
2019-03-15T08:56:51.884Z,4.22
2019-03-15T08:58:58.544Z,3.75
2019-03-15T09:01:06.295Z,4.15
2019-03-15T09:03:26.563Z,4.60
2019-03-15T09:05:21.331Z,4.95
2019-03-15T09:07:27.974Z,5.40
2019-03-15T09:09:36.120Z,4.33
2019-03-15T09:11:43.069Z,5.05
2019-03-15T09:13:49.719Z,4.50
2019-03-15T09:15:56.474Z,4.40
2019-03-15T09:18:03.145Z,4.97
2019-03-15T09:20:20.091Z,5.03
2019-03-15T09:22:26.742Z,4.72
2019-03-15T09:24:33.417Z,5.10
2019-03-15T09:26:40.077Z,5.55
2019-03-15T09:28:46.793Z,5.22
2019-03-15T09:30:53.475Z,5.37
2019-03-15T09:33:02.925Z,5.03
2019-03-15T09:35:09.955Z,5.85
2019-03-15T09:37:17.917Z,5.95
2019-03-15T09:39:24.678Z,5.53
2019-03-15T09:41:39.294Z,5.83
2019-03-15T09:43:39.793Z,5.90
2019-03-15T09:45:46.631Z,4.45
2019-03-15T09:47:53.334Z,4.92
2019-03-15T09:50:00.175Z,5.28
2019-03-15T09:52:07.223Z,4.80
2019-03-15T09:54:13.952Z,4.28
2019-03-15T09:56:20.619Z,4.17
2019-03-15T09:58:27.413Z,4.08
2019-03-15T10:00:34.198Z,8.43
2019-03-15T10:02:40.869Z,4.00
2019-03-15T10:04:47.596Z,4.37
2019-03-15T10:06:54.264Z,4.10
2019-03-15T10:09:00.953Z,4.12
2019-03-15T10:11:08.804Z,3.85
2019-03-15T10:13:15.454Z,4.90
2019-03-15T10:15:22.135Z,4.75
2019-03-15T10:17:35.072Z,4.72
2019-03-15T10:19:41.934Z,5.22
2019-03-15T10:21:48.889Z,5.22
2019-03-15T10:23:55.530Z,4.42
2019-03-15T10:26:02.254Z,4.12
2019-03-15T10:28:08.937Z,4.25
2019-03-15T10:30:20.269Z,4.50
2019-03-15T10:32:26.925Z,4.37
2019-03-15T10:34:35.667Z,3.92
2019-03-15T10:36:42.126Z,4.33
2019-03-15T10:38:48.780Z,4.50
2019-03-15T10:40:55.538Z,6.95
2019-03-15T10:43:02.188Z,5.92
2019-03-15T10:45:11.149Z,4.45
2019-03-15T10:47:17.836Z,4.22
2019-03-15T10:49:24.549Z,4.92
2019-03-15T10:51:31.129Z,4.47
2019-03-15T10:53:37.813Z,4.42
2019-03-15T10:55:44.529Z,4.53
2019-03-15T10:57:51.198Z,4.53
2019-03-15T10:59:57.964Z,3.62
2019-03-15T11:02:04.783Z,4.53
2019-03-15T11:04:11.433Z,3.95
2019-03-15T11:06:18.187Z,4.10
2019-03-15T11:08:24.912Z,4.03
2019-03-15T11:10:31.636Z,4.60
2019-03-15T11:12:38.321Z,4.65
2019-03-15T11:14:45.027Z,4.25
2019-03-15T11:16:51.673Z,4.42
2019-03-15T11:18:58.360Z,3.95
2019-03-15T11:21:05.085Z,4.33
2019-03-15T11:23:11.954Z,3.58
2019-03-15T11:25:18.708Z,4.75
2019-03-15T11:27:25.428Z,3.77
2019-03-15T11:29:32.079Z,3.80
2019-03-15T11:31:38.827Z,4.70
2019-03-15T11:33:47.468Z,4.97
2019-03-15T11:35:53.833Z,5.58
2019-03-15T11:38:00.520Z,4.60
2019-03-15T11:40:19.144Z,5.12
2019-03-15T11:42:25.659Z,5.55
2019-03-15T11:44:32.397Z,5.78
2019-03-15T11:46:39.061Z,5.17
2019-03-15T11:48:45.796Z,6.12
2019-03-15T11:50:52.485Z,4.87
2019-03-15T11:52:59.164Z,6.05
2019-03-15T11:55:07.921Z,6.05
2019-03-15T11:57:14.668Z,5.85
2019-03-15T11:59:21.396Z,6.53
2019-03-15T12:01:28.068Z,6.40
2019-03-15T12:03:34.743Z,6.35
2019-03-15T12:05:41.427Z,4.40
2019-03-15T12:07:48.081Z,3.47
2019-03-15T12:09:54.756Z,4.58
2019-03-15T12:12:01.412Z,4.50
2019-03-15T12:14:08.136Z,3.70
2019-03-15T12:16:14.816Z,3.52
2019-03-15T12:18:21.473Z,3.90
2019-03-15T12:20:28.136Z,3.75
2019-03-15T12:22:35.018Z,3.75
2019-03-15T12:24:41.678Z,3.92
2019-03-15T12:26:48.391Z,3.27
2019-03-15T12:28:55.070Z,3.80
2019-03-15T12:31:01.669Z,3.30
2019-03-15T12:33:08.315Z,3.20
2019-03-15T12:35:19.106Z,3.80
2019-03-15T12:37:25.766Z,3.85
2019-03-15T12:39:32.435Z,4.53
2019-03-15T12:41:39.146Z,4.40
2019-03-15T12:43:45.790Z,3.98
2019-03-15T12:45:52.510Z,3.40
2019-03-15T12:48:00.353Z,3.30
2019-03-15T12:50:12.571Z,3.72
2019-03-15T12:52:20.634Z,3.10
2019-03-15T12:54:27.648Z,2.75
2019-03-15T12:56:34.400Z,3.08
2019-03-15T12:58:41.060Z,3.17
2019-03-15T13:00:47.815Z,2.65
2019-03-15T13:02:54.538Z,2.92
2019-03-15T13:05:01.197Z,2.65
2019-03-15T13:07:07.869Z,2.40
2019-03-15T13:09:14.638Z,2.92
2019-03-15T13:11:21.316Z,2.80
2019-03-15T13:13:28.258Z,2.83
2019-03-15T13:15:35.211Z,2.85
2019-03-15T13:17:41.948Z,2.37
2019-03-15T13:19:54.948Z,2.50
2019-03-15T13:21:56.988Z,2.42
2019-03-15T13:24:04.815Z,2.67
2019-03-15T13:26:12.229Z,2.60
2019-03-15T13:28:19.481Z,2.65
2019-03-15T13:30:27.673Z,2.72
2019-03-15T13:32:34.350Z,2.77
2019-03-15T13:34:41.010Z,3.45
2019-03-15T13:36:47.838Z,2.72
2019-03-15T13:38:54.516Z,2.12
2019-03-15T13:41:01.164Z,2.83
2019-03-15T13:43:07.818Z,2.60
2019-03-15T13:45:16.018Z,2.75
2019-03-15T13:47:22.761Z,3.03
2019-03-15T13:49:29.481Z,3.08
2019-03-15T13:51:36.471Z,3.08
2019-03-15T13:53:43.472Z,3.72
2019-03-15T13:55:50.298Z,4.67
2019-03-15T13:57:57.073Z,5.08
2019-03-15T14:00:04.691Z,4.42
2019-03-15T14:02:11.644Z,4.22
2019-03-15T14:04:18.335Z,4.60
2019-03-15T14:06:25.003Z,3.10
2019-03-15T14:08:31.658Z,2.98
2019-03-15T14:10:48.547Z,3.30
2019-03-15T14:12:46.854Z,2.90
2019-03-15T14:14:53.497Z,2.80
2019-03-15T14:17:00.195Z,3.12
2019-03-15T14:19:06.981Z,2.40
2019-03-15T14:21:13.706Z,2.25
2019-03-15T14:23:21.414Z,2.08
2019-03-15T14:25:29.869Z,2.05
2019-03-15T14:27:37.825Z,2.25
2019-03-15T14:29:45.790Z,1.98
2019-03-15T14:31:52.595Z,2.55
2019-03-15T14:33:59.262Z,2.27
2019-03-15T14:36:05.973Z,3.20
2019-03-15T14:38:12.693Z,2.80
2019-03-15T14:40:19.481Z,2.90
2019-03-15T14:42:26.281Z,2.77
2019-03-15T14:44:33.017Z,3.08
2019-03-15T14:46:39.816Z,2.55
2019-03-15T14:48:46.632Z,2.37
2019-03-15T14:50:53.352Z,2.47
2019-03-15T14:53:00.060Z,2.15
2019-03-15T14:55:17.739Z,2.20
2019-03-15T14:57:26.644Z,1.95
2019-03-15T14:59:33.099Z,2.20
2019-03-15T15:01:39.775Z,1.90
2019-03-15T15:03:46.431Z,1.60
2019-03-15T15:05:53.165Z,2.60
2019-03-15T15:07:59.915Z,3.02
2019-03-15T15:10:15.008Z,2.42
2019-03-15T15:12:21.657Z,2.50
2019-03-15T15:14:28.443Z,2.45
2019-03-15T15:16:35.164Z,2.08
2019-03-15T15:18:41.889Z,2.45
2019-03-15T15:20:48.582Z,2.70
2019-03-15T15:22:55.671Z,3.10
2019-03-15T15:25:02.293Z,3.30
2019-03-15T15:27:09.052Z,3.62
2019-03-15T15:29:15.776Z,3.10
2019-03-15T15:31:22.432Z,3.70
2019-03-15T15:33:29.127Z,4.35
2019-03-15T15:35:35.835Z,4.42
2019-03-15T15:37:44.210Z,3.58
2019-03-15T15:39:52.737Z,3.33
2019-03-15T15:41:59.482Z,3.70
2019-03-15T15:44:06.410Z,3.30
2019-03-15T15:46:13.214Z,3.50
2019-03-15T15:48:19.877Z,4.72
2019-03-15T15:50:26.657Z,9.83
2019-03-15T15:52:33.483Z,6.17
2019-03-15T15:54:40.404Z,6.85
2019-03-15T15:56:47.179Z,6.75
2019-03-15T15:58:53.873Z,4.70
2019-03-15T16:01:02.074Z,4.03
2019-03-15T16:03:09.353Z,5.00
2019-03-15T16:05:17.169Z,5.95
2019-03-15T16:07:23.910Z,5.00
2019-03-15T16:09:30.738Z,4.62
2019-03-15T16:11:37.663Z,6.15
2019-03-15T16:13:44.504Z,6.30
2019-03-15T16:15:51.348Z,6.85
2019-03-15T16:17:58.082Z,8.25
2019-03-15T16:20:06.493Z,8.40
2019-03-15T16:22:13.276Z,8.28
2019-03-15T16:24:20.140Z,9.05
2019-03-15T16:26:27.435Z,9.60
2019-03-15T16:28:36.176Z,8.53
2019-03-15T16:30:42.579Z,11.85
2019-03-15T16:32:49.381Z,13.50
2019-03-15T16:34:56.156Z,19.25
2019-03-15T16:37:03.259Z,16.25
2019-03-15T16:39:10.017Z,16.75
2019-03-15T16:41:16.891Z,17.45
2019-03-15T16:43:23.664Z,13.30
2019-03-15T16:45:34.425Z,9.60
2019-03-15T16:47:41.146Z,9.68
2019-03-15T16:49:47.956Z,12.25
2019-03-15T16:51:54.654Z,9.98
2019-03-15T16:54:01.392Z,9.13
2019-03-15T16:56:08.178Z,9.20
2019-03-15T16:58:15.918Z,9.80
2019-03-15T17:00:22.700Z,8.20
2019-03-15T17:02:29.567Z,7.30
2019-03-15T17:04:36.232Z,7.97
2019-03-15T17:06:42.999Z,6.53
2019-03-15T17:08:50.096Z,6.75
2019-03-15T17:10:56.739Z,7.70
2019-03-15T17:13:03.499Z,9.00
2019-03-15T17:15:28.605Z,9.93
2019-03-15T17:17:35.319Z,9.73
2019-03-15T17:19:42.346Z,9.95
2019-03-15T17:21:49.405Z,9.23
2019-03-15T17:23:57.130Z,8.23
2019-03-15T17:26:03.856Z,7.80
2019-03-15T17:28:10.558Z,8.45
2019-03-15T17:30:18.658Z,8.58
2019-03-15T17:32:26.299Z,11.33
2019-03-15T17:34:34.093Z,9.30
2019-03-15T17:36:40.754Z,8.88
2019-03-15T17:38:47.518Z,10.88
2019-03-15T17:40:54.262Z,11.35
2019-03-15T17:43:00.993Z,10.50
2019-03-15T17:45:09.351Z,11.50
2019-03-15T17:47:16.131Z,11.08
2019-03-15T17:49:22.793Z,10.13
2019-03-15T17:51:29.457Z,9.40
2019-03-15T17:53:36.229Z,10.38
2019-03-15T17:55:42.960Z,9.25
2019-03-15T17:57:49.902Z,9.90
2019-03-15T18:00:18.733Z,12.18
2019-03-15T18:02:25.465Z,11.35
2019-03-15T18:04:32.206Z,12.75
2019-03-15T18:06:38.977Z,12.05
2019-03-15T18:08:45.728Z,12.50
2019-03-15T18:10:52.478Z,12.35
2019-03-15T18:12:59.250Z,11.50
2019-03-15T18:15:09.497Z,10.15
2019-03-15T18:17:17.193Z,11.90
2019-03-15T18:19:23.981Z,11.90
2019-03-15T18:21:30.722Z,14.23
2019-03-15T18:23:37.455Z,15.18
2019-03-15T18:25:44.335Z,14.28
2019-03-15T18:27:51.934Z,12.93
2019-03-15T18:29:58.666Z,12.03
2019-03-15T18:32:05.442Z,12.28
2019-03-15T18:34:12.417Z,11.30
2019-03-15T18:36:20.835Z,10.70
2019-03-15T18:38:27.716Z,11.12
2019-03-15T18:40:34.479Z,11.05
2019-03-15T18:42:41.362Z,11.90
2019-03-15T18:44:48.121Z,10.53
2019-03-15T18:46:54.894Z,10.75
2019-03-15T18:49:01.637Z,11.80
2019-03-15T18:51:08.420Z,11.63
2019-03-15T18:53:16.675Z,12.23
2019-03-15T18:55:23.551Z,12.03
2019-03-15T18:57:30.304Z,10.55
2019-03-15T18:59:40.304Z,12.68
2019-03-15T19:01:47.981Z,11.60
2019-03-15T19:03:54.888Z,11.50
2019-03-15T19:06:01.734Z,11.15
2019-03-15T19:08:08.570Z,9.60
2019-03-15T19:10:16.508Z,10.38
2019-03-15T19:12:23.279Z,9.35
2019-03-15T19:14:31.578Z,8.95
2019-03-15T19:16:39.939Z,9.53
2019-03-15T19:18:46.667Z,10.03
2019-03-15T19:20:53.536Z,9.08
2019-03-15T19:23:01.433Z,9.85
2019-03-15T19:25:11.839Z,8.83
2019-03-15T19:27:18.658Z,8.38
2019-03-15T19:29:25.453Z,8.83
2019-03-15T19:31:32.176Z,9.05
2019-03-15T19:33:38.907Z,8.58
2019-03-15T19:35:45.674Z,8.43
2019-03-15T19:37:52.518Z,8.80
2019-03-15T19:39:59.202Z,8.80
2019-03-15T19:42:06.072Z,8.88
2019-03-15T19:44:12.819Z,8.23
2019-03-15T19:46:19.596Z,8.65
2019-03-15T19:48:26.281Z,8.40
2019-03-15T19:50:33.005Z,9.03
2019-03-15T19:52:40.764Z,8.48
2019-03-15T19:54:59.952Z,8.78
2019-03-15T19:56:56.105Z,7.85
2019-03-15T19:59:04.197Z,8.95
2019-03-15T20:01:12.324Z,8.03
2019-03-15T20:03:20.113Z,7.97
2019-03-15T20:05:26.974Z,7.22
2019-03-15T20:07:33.825Z,8.05
2019-03-15T20:09:40.631Z,7.58
2019-03-15T20:11:47.528Z,7.42
2019-03-15T20:13:55.516Z,7.45
2019-03-15T20:16:02.267Z,7.40
2019-03-15T20:18:09.219Z,7.17
2019-03-15T20:20:18.814Z,7.62
2019-03-15T20:22:27.026Z,7.22
2019-03-15T20:24:36.571Z,7.87
2019-03-15T20:26:42.349Z,9.05
2019-03-15T20:28:50.610Z,7.65
2019-03-15T20:30:57.463Z,9.58
2019-03-15T20:33:04.435Z,7.72
2019-03-15T20:35:12.426Z,8.03
2019-03-15T20:37:19.143Z,8.03
2019-03-15T20:39:26.511Z,7.85
2019-03-15T20:41:33.251Z,7.60
2019-03-15T20:43:40.081Z,8.33
2019-03-15T20:45:47.006Z,8.83
2019-03-15T20:47:53.881Z,8.78
2019-03-15T20:50:00.626Z,9.45
2019-03-15T20:52:08.467Z,8.98
2019-03-15T20:54:16.499Z,7.47
2019-03-15T20:56:25.768Z,8.23
2019-03-15T20:58:34.071Z,8.88
2019-03-15T21:00:42.326Z,7.87
2019-03-15T21:02:50.279Z,7.50
2019-03-15T21:04:58.604Z,8.15
2019-03-15T21:07:06.898Z,8.58
2019-03-15T21:09:13.849Z,7.63
2019-03-15T21:11:20.609Z,8.48
2019-03-15T21:13:27.347Z,8.15
2019-03-15T21:15:35.332Z,7.87
2019-03-15T21:17:42.027Z,7.47
2019-03-15T21:19:48.692Z,7.78
2019-03-15T21:21:56.593Z,8.00
2019-03-15T21:24:03.607Z,8.08
2019-03-15T21:26:11.915Z,7.33
2019-03-15T21:28:21.551Z,7.67
2019-03-15T21:30:28.746Z,8.38
2019-03-15T21:32:35.535Z,8.73
2019-03-15T21:34:42.293Z,7.85
2019-03-15T21:36:49.443Z,8.43
2019-03-15T21:38:56.118Z,8.78
2019-03-15T21:41:02.856Z,8.45
2019-03-15T21:43:09.867Z,8.50
2019-03-15T21:45:16.661Z,6.85
2019-03-15T21:47:24.844Z,7.92
2019-03-15T21:49:34.978Z,7.53
2019-03-15T21:51:40.118Z,7.75
2019-03-15T21:53:46.924Z,7.87
2019-03-15T21:55:55.171Z,8.18
2019-03-15T21:58:01.909Z,7.58
2019-03-15T22:00:19.199Z,8.20
2019-03-15T22:02:26.128Z,8.05
2019-03-15T22:04:34.431Z,7.35
2019-03-15T22:06:41.186Z,8.18
2019-03-15T22:08:49.117Z,7.45
2019-03-15T22:10:56.437Z,7.75
2019-03-15T22:13:04.606Z,7.30
2019-03-15T22:15:13.363Z,7.20
2019-03-15T22:17:20.264Z,8.00
2019-03-15T22:19:27.078Z,7.40
2019-03-15T22:21:33.951Z,7.67
2019-03-15T22:23:40.780Z,8.03
2019-03-15T22:25:50.115Z,8.43
2019-03-15T22:27:56.984Z,8.78
2019-03-15T22:30:04.973Z,8.43
2019-03-15T22:32:11.664Z,9.45
2019-03-15T22:34:18.414Z,9.38
2019-03-15T22:36:25.113Z,9.35
2019-03-15T22:38:31.845Z,10.23
2019-03-15T22:40:38.679Z,9.80
2019-03-15T22:42:45.534Z,9.48
2019-03-15T22:44:52.590Z,9.35
2019-03-15T22:46:59.277Z,9.00
2019-03-15T22:49:05.948Z,9.65
2019-03-15T22:51:12.619Z,9.45
2019-03-15T22:53:20.837Z,9.50
2019-03-15T22:55:27.824Z,7.85
2019-03-15T22:57:36.013Z,9.23
2019-03-15T22:59:42.688Z,9.78
2019-03-15T23:01:49.558Z,9.85
2019-03-15T23:03:56.313Z,10.48
2019-03-15T23:06:03.024Z,10.28
2019-03-15T23:08:09.770Z,10.63
2019-03-15T23:10:16.439Z,10.50
2019-03-15T23:12:23.125Z,9.70
2019-03-15T23:14:29.783Z,9.93
2019-03-15T23:16:36.446Z,10.03
2019-03-15T23:18:43.138Z,10.38
2019-03-15T23:20:49.792Z,8.85
2019-03-15T23:22:56.586Z,10.45
2019-03-15T23:25:03.277Z,10.40
2019-03-15T23:27:09.938Z,10.18
2019-03-15T23:29:16.665Z,10.72
2019-03-15T23:31:23.390Z,10.10
2019-03-15T23:33:30.115Z,9.23
2019-03-15T23:35:52.828Z,9.38
2019-03-15T23:37:45.217Z,9.03
2019-03-15T23:39:51.878Z,8.45
2019-03-15T23:41:58.602Z,8.53
2019-03-15T23:44:05.383Z,7.87
2019-03-15T23:46:12.037Z,5.62
2019-03-15T23:48:18.763Z,3.80
2019-03-15T23:50:25.527Z,4.22
2019-03-15T23:52:32.255Z,3.08
2019-03-15T23:54:38.902Z,3.15
2019-03-15T23:56:45.658Z,3.17
2019-03-15T23:58:52.307Z,2.47
